Aeroporto :
LOGIN :

Iscrizione | Disclaimer

   EN    FR    IT 

 










Sommario :    VFR   VFR Marginale   IFR   IFR Intensivo   IFR Molto Intensivo
Visibilità : 
Base nubi : 
>= 8 km
>= 3000ft
5 / 8 km
1000 / 3000 ft
1500m / 5 km
500 / 1000 ft
800 / 1500m
200 / 500 ft
< 800m
< 200 ft
Simboli :   Temporali  Nebbia  Neve Forte  Precipitazioni Forti  Vento > 20 kt
SIGMETs :   Varie  Temporali  Ghiacco  Turbolenza  Onda orograficha  Ceneri Vulcaniche






- Altitudine del aeroporto : 20 ft


EBFN - Koksijde

ULTIMO METAR :
  • 250808Z 09004KT 1300 BR FEW003 BKN020 M01/M01 Q1034 AMB AMB BECMG RED

METARs OBSOLETI :
  • 250803Z 09005KT 1600 BR FEW003 BKN020 M01/M01 Q1034 YLO AMB BECMG RED
  • 250725Z 08004KT 2000 BR SKC M01/M01 Q1033 YLO YLO TEMPO AMB
  • 250625Z 06003KT 2500 BR SKC M01/M01 Q1033 YLO YLO TEMPO AMB
  • 250555Z 03003KT 2200 BR SKC M01/M01 Q1033 YLO YLO TEMPO AMB
  • 250525Z VRB02KT 1800 SKC M01/M02 Q1033 YLO YLO TEMPO AMB

TAF TAF EBFN
Valido dal 25 a 07 ore il 25 a 16 ore UTC


250541Z 2507/2516 09003KT 1500 BR SCT002
TEMPO 2507/2510 VRB02KT 1000 BR SCT001
BECMG 2510/2512 06003KT 4000 BR BKN003
TEMPO 2512/2516 6000 NSW BKN003 BY EBWM



MetMap, La meteo Aeronautica in un colpo d'occhio ! - Copyright ORBIFLY Dicembre 2007 - Disclaimer

ORBIFLY MET'MAP TEAM :

Programmazione e sviluppo : Alexandra Zaïnal
Concezione : Baudouin d'Aumeries
Supporto tecnico e logistico : Manuel Goepfert
Aiuto : Marc-Olivier Méhu
Aiuto per la traduzione : Arnaldo La Scala

Contatto : metmap@orbifly.com




FONTI E CREDITI :

   NOAA